sensor_id;sensor_type;location;lat;lon;timestamp;temperature;humidity
12233;DHT22;6179;51.748;8.728;2022-07-24T00:03:51;16.40;98.30
12233;DHT22;6179;51.748;8.728;2022-07-24T00:09:51;16.50;98.30
12233;DHT22;6179;51.748;8.728;2022-07-24T00:15:52;16.30;98.30
12233;DHT22;6179;51.748;8.728;2022-07-24T00:21:53;16.20;98.30
12233;DHT22;6179;51.748;8.728;2022-07-24T00:27:53;16.10;98.30
12233;DHT22;6179;51.748;8.728;2022-07-24T00:33:54;15.90;98.30
12233;DHT22;6179;51.748;8.728;2022-07-24T00:39:55;16.00;98.30
12233;DHT22;6179;51.748;8.728;2022-07-24T00:45:55;16.10;98.30
12233;DHT22;6179;51.748;8.728;2022-07-24T00:51:56;16.00;98.30
12233;DHT22;6179;51.748;8.728;2022-07-24T00:57:57;16.00;98.30
12233;DHT22;6179;51.748;8.728;2022-07-24T01:03:58;16.10;98.30
12233;DHT22;6179;51.748;8.728;2022-07-24T01:09:59;16.10;98.30
12233;DHT22;6179;51.748;8.728;2022-07-24T01:15:59;16.00;98.30
12233;DHT22;6179;51.748;8.728;2022-07-24T01:22:00;16.20;98.10
12233;DHT22;6179;51.748;8.728;2022-07-24T01:28:01;16.30;96.90
12233;DHT22;6179;51.748;8.728;2022-07-24T01:34:02;16.30;97.20
12233;DHT22;6179;51.748;8.728;2022-07-24T01:40:03;16.40;95.90
12233;DHT22;6179;51.748;8.728;2022-07-24T01:46:05;16.40;96.30
12233;DHT22;6179;51.748;8.728;2022-07-24T01:52:05;16.40;96.10
12233;DHT22;6179;51.748;8.728;2022-07-24T01:58:06;16.60;95.50
12233;DHT22;6179;51.748;8.728;2022-07-24T02:04:07;16.40;96.00
12233;DHT22;6179;51.748;8.728;2022-07-24T02:10:08;16.40;96.00
12233;DHT22;6179;51.748;8.728;2022-07-24T02:16:09;16.30;96.60
12233;DHT22;6179;51.748;8.728;2022-07-24T02:22:10;16.50;95.50
12233;DHT22;6179;51.748;8.728;2022-07-24T02:28:11;16.30;96.10
12233;DHT22;6179;51.748;8.728;2022-07-24T02:34:12;16.40;96.00
12233;DHT22;6179;51.748;8.728;2022-07-24T02:40:14;16.30;96.30
12233;DHT22;6179;51.748;8.728;2022-07-24T02:46:15;16.20;96.60
12233;DHT22;6179;51.748;8.728;2022-07-24T02:52:15;16.40;96.00
12233;DHT22;6179;51.748;8.728;2022-07-24T02:58:16;16.40;95.70
12233;DHT22;6179;51.748;8.728;2022-07-24T03:04:17;16.00;97.20
12233;DHT22;6179;51.748;8.728;2022-07-24T03:10:18;15.90;97.50
12233;DHT22;6179;51.748;8.728;2022-07-24T03:16:18;15.90;97.80
12233;DHT22;6179;51.748;8.728;2022-07-24T03:22:19;15.70;98.20
12233;DHT22;6179;51.748;8.728;2022-07-24T03:28:20;15.70;98.00
12233;DHT22;6179;51.748;8.728;2022-07-24T03:34:21;15.70;98.00
12233;DHT22;6179;51.748;8.728;2022-07-24T03:40:21;15.60;98.10
12233;DHT22;6179;51.748;8.728;2022-07-24T03:46:22;15.60;98.30
12233;DHT22;6179;51.748;8.728;2022-07-24T03:52:23;15.80;98.20
12233;DHT22;6179;51.748;8.728;2022-07-24T03:58:23;15.80;98.00
12233;DHT22;6179;51.748;8.728;2022-07-24T04:04:24;15.80;98.20
12233;DHT22;6179;51.748;8.728;2022-07-24T04:10:25;15.90;97.90
12233;DHT22;6179;51.748;8.728;2022-07-24T04:16:26;15.80;98.30
12233;DHT22;6179;51.748;8.728;2022-07-24T04:22:26;15.90;98.30
12233;DHT22;6179;51.748;8.728;2022-07-24T04:28:27;16.00;98.30
12233;DHT22;6179;51.748;8.728;2022-07-24T04:34:28;16.20;97.70
12233;DHT22;6179;51.748;8.728;2022-07-24T04:40:29;16.20;97.60
12233;DHT22;6179;51.748;8.728;2022-07-24T04:46:29;16.40;96.90
12233;DHT22;6179;51.748;8.728;2022-07-24T04:52:30;16.50;97.00
12233;DHT22;6179;51.748;8.728;2022-07-24T04:58:31;16.70;96.60
12233;DHT22;6179;51.748;8.728;2022-07-24T05:04:31;16.90;96.40
12233;DHT22;6179;51.748;8.728;2022-07-24T05:10:34;17.00;96.60
12233;DHT22;6179;51.748;8.728;2022-07-24T05:16:35;17.20;96.00
12233;DHT22;6179;51.748;8.728;2022-07-24T05:22:36;17.40;95.90
12233;DHT22;6179;51.748;8.728;2022-07-24T05:28:37;17.70;95.40
12233;DHT22;6179;51.748;8.728;2022-07-24T05:34:38;18.10;95.10
12233;DHT22;6179;51.748;8.728;2022-07-24T05:40:39;18.40;94.90
12233;DHT22;6179;51.748;8.728;2022-07-24T05:46:40;18.60;93.00
12233;DHT22;6179;51.748;8.728;2022-07-24T05:52:41;19.00;92.10
12233;DHT22;6179;51.748;8.728;2022-07-24T05:58:42;19.50;90.90
12233;DHT22;6179;51.748;8.728;2022-07-24T06:04:42;20.10;89.40
12233;DHT22;6179;51.748;8.728;2022-07-24T06:10:44;20.50;88.30
12233;DHT22;6179;51.748;8.728;2022-07-24T06:16:45;20.80;87.50
12233;DHT22;6179;51.748;8.728;2022-07-24T06:22:46;21.20;87.00
12233;DHT22;6179;51.748;8.728;2022-07-24T06:28:46;21.70;85.20
12233;DHT22;6179;51.748;8.728;2022-07-24T06:34:47;22.20;82.60
12233;DHT22;6179;51.748;8.728;2022-07-24T06:40:48;22.30;83.20
12233;DHT22;6179;51.748;8.728;2022-07-24T06:46:49;22.50;81.30
12233;DHT22;6179;51.748;8.728;2022-07-24T06:52:50;22.30;83.60
12233;DHT22;6179;51.748;8.728;2022-07-24T06:58:50;22.50;82.00
12233;DHT22;6179;51.748;8.728;2022-07-24T07:04:51;22.80;79.90
12233;DHT22;6179;51.748;8.728;2022-07-24T07:10:52;23.10;81.70
12233;DHT22;6179;51.748;8.728;2022-07-24T07:16:53;23.30;79.20
12233;DHT22;6179;51.748;8.728;2022-07-24T07:22:53;24.00;76.00
12233;DHT22;6179;51.748;8.728;2022-07-24T07:28:54;23.80;77.40
12233;DHT22;6179;51.748;8.728;2022-07-24T07:34:55;23.60;77.10
12233;DHT22;6179;51.748;8.728;2022-07-24T07:40:55;23.70;79.80
12233;DHT22;6179;51.748;8.728;2022-07-24T07:46:56;24.00;77.30
12233;DHT22;6179;51.748;8.728;2022-07-24T07:52:57;24.50;74.90
12233;DHT22;6179;51.748;8.728;2022-07-24T07:58:58;24.80;73.20
12233;DHT22;6179;51.748;8.728;2022-07-24T08:04:58;25.10;74.90
12233;DHT22;6179;51.748;8.728;2022-07-24T08:10:59;25.20;72.70
12233;DHT22;6179;51.748;8.728;2022-07-24T08:17:00;25.10;70.00
12233;DHT22;6179;51.748;8.728;2022-07-24T08:23:00;24.70;71.30
12233;DHT22;6179;51.748;8.728;2022-07-24T08:29:01;25.00;73.80
12233;DHT22;6179;51.748;8.728;2022-07-24T08:35:03;25.10;67.90
12233;DHT22;6179;51.748;8.728;2022-07-24T08:41:05;25.40;70.80
12233;DHT22;6179;51.748;8.728;2022-07-24T08:47:06;26.10;70.40
12233;DHT22;6179;51.748;8.728;2022-07-24T08:53:09;26.10;67.60
12233;DHT22;6179;51.748;8.728;2022-07-24T08:59:21;26.50;69.70
12233;DHT22;6179;51.748;8.728;2022-07-24T09:05:23;26.50;67.70
12233;DHT22;6179;51.748;8.728;2022-07-24T09:11:23;26.40;68.00
12233;DHT22;6179;51.748;8.728;2022-07-24T09:17:24;26.10;66.30
12233;DHT22;6179;51.748;8.728;2022-07-24T09:23:25;26.50;67.30
12233;DHT22;6179;51.748;8.728;2022-07-24T09:29:26;26.70;66.60
12233;DHT22;6179;51.748;8.728;2022-07-24T09:41:31;27.20;66.40
12233;DHT22;6179;51.748;8.728;2022-07-24T09:47:34;26.90;67.20
12233;DHT22;6179;51.748;8.728;2022-07-24T09:53:35;27.10;65.00
12233;DHT22;6179;51.748;8.728;2022-07-24T09:59:36;27.70;67.40
12233;DHT22;6179;51.748;8.728;2022-07-24T10:05:38;28.00;66.60
12233;DHT22;6179;51.748;8.728;2022-07-24T10:11:42;28.20;64.40
12233;DHT22;6179;51.748;8.728;2022-07-24T10:25:03;28.30;64.40
12233;DHT22;6179;51.748;8.728;2022-07-24T10:30:41;28.70;62.00
12233;DHT22;6179;51.748;8.728;2022-07-24T10:36:48;28.80;63.80
12233;DHT22;6179;51.748;8.728;2022-07-24T10:55:39;28.90;62.20
12233;DHT22;6179;51.748;8.728;2022-07-24T11:01:40;28.30;64.20
12233;DHT22;6179;51.748;8.728;2022-07-24T11:14:13;29.00;61.70
12233;DHT22;6179;51.748;8.728;2022-07-24T11:20:20;28.90;62.50
12233;DHT22;6179;51.748;8.728;2022-07-24T11:32:31;29.20;62.80
12233;DHT22;6179;51.748;8.728;2022-07-24T11:38:32;29.80;59.30
12233;DHT22;6179;51.748;8.728;2022-07-24T11:44:41;29.40;62.00
12233;DHT22;6179;51.748;8.728;2022-07-24T11:50:42;29.80;62.40
12233;DHT22;6179;51.748;8.728;2022-07-24T11:56:43;29.90;60.70
12233;DHT22;6179;51.748;8.728;2022-07-24T12:02:52;29.50;64.00
12233;DHT22;6179;51.748;8.728;2022-07-24T12:09:06;30.00;58.80
12233;DHT22;6179;51.748;8.728;2022-07-24T12:15:12;29.90;61.40
12233;DHT22;6179;51.748;8.728;2022-07-24T12:21:13;30.10;62.20
12233;DHT22;6179;51.748;8.728;2022-07-24T12:27:34;29.80;61.30
12233;DHT22;6179;51.748;8.728;2022-07-24T12:33:35;29.80;63.90
12233;DHT22;6179;51.748;8.728;2022-07-24T12:39:52;29.50;62.70
12233;DHT22;6179;51.748;8.728;2022-07-24T12:46:08;30.00;64.30
12233;DHT22;6179;51.748;8.728;2022-07-24T12:52:23;30.40;61.00
12233;DHT22;6179;51.748;8.728;2022-07-24T12:58:24;29.90;58.50
12233;DHT22;6179;51.748;8.728;2022-07-24T13:04:26;29.70;61.20
12233;DHT22;6179;51.748;8.728;2022-07-24T13:10:27;29.90;63.40
12233;DHT22;6179;51.748;8.728;2022-07-24T13:16:32;30.10;59.00
12233;DHT22;6179;51.748;8.728;2022-07-24T13:22:33;30.10;61.60
12233;DHT22;6179;51.748;8.728;2022-07-24T13:28:34;30.90;60.10
12233;DHT22;6179;51.748;8.728;2022-07-24T13:34:34;30.60;60.70
12233;DHT22;6179;51.748;8.728;2022-07-24T13:40:35;30.40;58.80
12233;DHT22;6179;51.748;8.728;2022-07-24T13:46:36;30.50;60.30
12233;DHT22;6179;51.748;8.728;2022-07-24T13:52:36;30.50;60.30
12233;DHT22;6179;51.748;8.728;2022-07-24T13:58:37;30.60;60.20
12233;DHT22;6179;51.748;8.728;2022-07-24T14:04:38;30.90;59.60
12233;DHT22;6179;51.748;8.728;2022-07-24T14:10:38;31.10;60.80
12233;DHT22;6179;51.748;8.728;2022-07-24T14:16:39;31.00;56.80
12233;DHT22;6179;51.748;8.728;2022-07-24T14:22:41;31.10;60.20
12233;DHT22;6179;51.748;8.728;2022-07-24T14:28:42;30.90;56.80
12233;DHT22;6179;51.748;8.728;2022-07-24T14:34:43;31.20;55.70
12233;DHT22;6179;51.748;8.728;2022-07-24T14:40:44;31.30;55.30
12233;DHT22;6179;51.748;8.728;2022-07-24T14:46:44;31.20;57.70
12233;DHT22;6179;51.748;8.728;2022-07-24T14:52:45;30.50;58.00
12233;DHT22;6179;51.748;8.728;2022-07-24T14:58:46;30.80;56.60
12233;DHT22;6179;51.748;8.728;2022-07-24T15:04:47;30.60;56.10
12233;DHT22;6179;51.748;8.728;2022-07-24T15:10:47;30.60;58.10
12233;DHT22;6179;51.748;8.728;2022-07-24T15:16:48;30.90;58.20
12233;DHT22;6179;51.748;8.728;2022-07-24T15:22:49;30.80;58.50
12233;DHT22;6179;51.748;8.728;2022-07-24T15:28:50;30.70;55.70
12233;DHT22;6179;51.748;8.728;2022-07-24T15:34:51;30.90;55.80
12233;DHT22;6179;51.748;8.728;2022-07-24T15:40:51;31.10;55.20
12233;DHT22;6179;51.748;8.728;2022-07-24T15:46:52;31.20;54.60
12233;DHT22;6179;51.748;8.728;2022-07-24T15:52:53;30.90;58.10
12233;DHT22;6179;51.748;8.728;2022-07-24T15:58:53;30.90;56.80
12233;DHT22;6179;51.748;8.728;2022-07-24T16:04:54;31.10;59.50
12233;DHT22;6179;51.748;8.728;2022-07-24T16:10:55;30.90;58.90
12233;DHT22;6179;51.748;8.728;2022-07-24T16:16:55;31.20;57.90
12233;DHT22;6179;51.748;8.728;2022-07-24T16:22:56;30.90;56.30
12233;DHT22;6179;51.748;8.728;2022-07-24T16:28:57;31.00;56.40
12233;DHT22;6179;51.748;8.728;2022-07-24T16:34:58;31.10;55.40
12233;DHT22;6179;51.748;8.728;2022-07-24T16:40:58;30.80;58.80
12233;DHT22;6179;51.748;8.728;2022-07-24T16:46:59;30.70;55.90
12233;DHT22;6179;51.748;8.728;2022-07-24T16:53:00;30.90;56.30
12233;DHT22;6179;51.748;8.728;2022-07-24T16:59:00;31.00;55.40
12233;DHT22;6179;51.748;8.728;2022-07-24T17:05:01;30.70;55.70
12233;DHT22;6179;51.748;8.728;2022-07-24T17:11:02;30.60;58.00
12233;DHT22;6179;51.748;8.728;2022-07-24T17:17:03;30.50;57.00
12233;DHT22;6179;51.748;8.728;2022-07-24T17:23:05;30.10;57.00
12233;DHT22;6179;51.748;8.728;2022-07-24T17:29:06;30.30;56.20
12233;DHT22;6179;51.748;8.728;2022-07-24T17:35:07;30.30;58.40
12233;DHT22;6179;51.748;8.728;2022-07-24T17:41:08;30.20;60.00
12233;DHT22;6179;51.748;8.728;2022-07-24T17:47:10;29.90;60.20
12233;DHT22;6179;51.748;8.728;2022-07-24T17:53:11;30.00;60.60
12233;DHT22;6179;51.748;8.728;2022-07-24T17:59:12;29.70;61.50
12233;DHT22;6179;51.748;8.728;2022-07-24T18:05:14;29.60;62.20
12233;DHT22;6179;51.748;8.728;2022-07-24T18:11:14;29.50;63.60
12233;DHT22;6179;51.748;8.728;2022-07-24T18:17:15;29.30;62.40
12233;DHT22;6179;51.748;8.728;2022-07-24T18:23:16;29.20;60.10
12233;DHT22;6179;51.748;8.728;2022-07-24T18:29:17;28.90;65.50
12233;DHT22;6179;51.748;8.728;2022-07-24T18:35:18;28.80;65.60
12233;DHT22;6179;51.748;8.728;2022-07-24T18:41:18;28.50;66.10
12233;DHT22;6179;51.748;8.728;2022-07-24T18:47:19;28.20;66.50
12233;DHT22;6179;51.748;8.728;2022-07-24T18:53:20;27.90;67.00
12233;DHT22;6179;51.748;8.728;2022-07-24T18:59:20;27.60;67.70
12233;DHT22;6179;51.748;8.728;2022-07-24T19:05:21;27.40;68.00
12233;DHT22;6179;51.748;8.728;2022-07-24T19:11:22;27.10;68.50
12233;DHT22;6179;51.748;8.728;2022-07-24T19:17:23;26.90;69.30
12233;DHT22;6179;51.748;8.728;2022-07-24T19:23:25;26.70;69.60
12233;DHT22;6179;51.748;8.728;2022-07-24T19:29:26;26.50;69.80
12233;DHT22;6179;51.748;8.728;2022-07-24T19:35:27;26.40;70.40
12233;DHT22;6179;51.748;8.728;2022-07-24T19:41:27;26.20;72.40
12233;DHT22;6179;51.748;8.728;2022-07-24T19:47:28;25.90;74.10
12233;DHT22;6179;51.748;8.728;2022-07-24T19:53:29;25.70;74.80
12233;DHT22;6179;51.748;8.728;2022-07-24T19:59:29;25.60;75.00
12233;DHT22;6179;51.748;8.728;2022-07-24T20:05:30;25.40;75.60
12233;DHT22;6179;51.748;8.728;2022-07-24T20:11:34;25.20;76.50
12233;DHT22;6179;51.748;8.728;2022-07-24T20:17:35;25.10;78.70
12233;DHT22;6179;51.748;8.728;2022-07-24T20:23:36;25.20;79.10
12233;DHT22;6179;51.748;8.728;2022-07-24T20:29:36;24.80;79.10
12233;DHT22;6179;51.748;8.728;2022-07-24T20:35:37;24.50;80.60
12233;DHT22;6179;51.748;8.728;2022-07-24T20:41:38;24.40;82.40
12233;DHT22;6179;51.748;8.728;2022-07-24T20:47:39;24.10;82.50
12233;DHT22;6179;51.748;8.728;2022-07-24T20:53:39;23.90;83.80
12233;DHT22;6179;51.748;8.728;2022-07-24T20:59:40;23.80;83.70
12233;DHT22;6179;51.748;8.728;2022-07-24T21:05:41;23.90;83.30
12233;DHT22;6179;51.748;8.728;2022-07-24T21:11:42;23.80;84.00
12233;DHT22;6179;51.748;8.728;2022-07-24T21:17:43;23.80;84.40
12233;DHT22;6179;51.748;8.728;2022-07-24T21:23:45;23.60;84.60
12233;DHT22;6179;51.748;8.728;2022-07-24T21:29:46;23.50;85.60
12233;DHT22;6179;51.748;8.728;2022-07-24T21:35:46;23.30;86.10
12233;DHT22;6179;51.748;8.728;2022-07-24T21:41:47;23.20;86.20
12233;DHT22;6179;51.748;8.728;2022-07-24T21:47:48;23.00;86.50
12233;DHT22;6179;51.748;8.728;2022-07-24T21:53:49;22.90;87.10
12233;DHT22;6179;51.748;8.728;2022-07-24T21:59:50;22.70;87.40
12233;DHT22;6179;51.748;8.728;2022-07-24T22:05:51;22.60;87.60
12233;DHT22;6179;51.748;8.728;2022-07-24T22:11:51;22.40;87.90
12233;DHT22;6179;51.748;8.728;2022-07-24T22:17:52;22.30;87.70
12233;DHT22;6179;51.748;8.728;2022-07-24T22:23:53;22.30;87.90
12233;DHT22;6179;51.748;8.728;2022-07-24T22:29:53;22.20;87.80
12233;DHT22;6179;51.748;8.728;2022-07-24T22:35:55;22.20;88.10
12233;DHT22;6179;51.748;8.728;2022-07-24T22:41:56;22.10;88.20
12233;DHT22;6179;51.748;8.728;2022-07-24T22:47:57;22.10;88.10
12233;DHT22;6179;51.748;8.728;2022-07-24T22:53:58;22.10;87.60
12233;DHT22;6179;51.748;8.728;2022-07-24T22:59:59;22.20;86.70
12233;DHT22;6179;51.748;8.728;2022-07-24T23:06:00;22.20;86.20
12233;DHT22;6179;51.748;8.728;2022-07-24T23:12:00;22.20;86.30
12233;DHT22;6179;51.748;8.728;2022-07-24T23:18:01;22.20;86.10
12233;DHT22;6179;51.748;8.728;2022-07-24T23:24:02;22.10;86.30
12233;DHT22;6179;51.748;8.728;2022-07-24T23:30:04;21.90;86.30
12233;DHT22;6179;51.748;8.728;2022-07-24T23:36:05;21.80;86.70
12233;DHT22;6179;51.748;8.728;2022-07-24T23:42:06;21.60;86.70
12233;DHT22;6179;51.748;8.728;2022-07-24T23:48:06;21.40;86.90
12233;DHT22;6179;51.748;8.728;2022-07-24T23:54:07;21.40;86.80
